Nueva Esperanza, Argentina
Current Conditions -  °F | °C
As of 6:00 PM on Saturday 20 Dec 2014 (Local Time) from SANT Reporting Station
Broken Clouds Broken Clouds  
Wind Chill: 88°   Ceiling: 20000
Heat Index: 96°   Visibility: 6mi
Dew Point: 73°   Wind: 7mph
Humidity: 62%   Direction: 230°SW
Pressure: 29.35"   Gusts: NA
Location:  26.2°S, 64.27°W
Report Text: SANT 202100Z 23006KT 9999 SCT035 FEW050TCUBKN200 31/23 Q0994
Loading
Personal Weather Stations






























Interactive Weather Map New forecast layout! Learn more

10-Day Weather Forecast

Advertisements
Track Severe Weather on mobile